Time;durP1;ratioP1;P1;durP2;ratioP2;P2;SDS_P1;SDS_P2;PMS_P1;PMS_P2;Temp;Humidity;BMP_temperature;BMP_pressure;BME280_temperature;BME280_humidity;BME280_pressure;Samples;Min_cycle;Max_cycle;Signal;HPM_P1;HPM_P2
2022/04/15 00:01:38;;;;;;;1.33;1.10;;;;;;;;;;6205135;23;20537;-55
2022/04/15 00:04:04;;;;;;;1.35;0.80;;;;;;;;;;6207590;23;20016;-56
2022/04/15 00:06:30;;;;;;;0.98;0.82;;;;;;;;;;6207094;23;20008;-55
2022/04/15 00:08:56;;;;;;;1.30;0.82;;;;;;;;;;6207073;23;20104;-55
2022/04/15 00:11:22;;;;;;;1.35;1.00;;;;;;;;;;6207826;23;20397;-55
2022/04/15 00:13:49;;;;;;;0.93;0.80;;;;;;;;;;6207552;23;20007;-55
2022/04/15 00:16:15;;;;;;;2.03;0.88;;;;;;;;;;6207792;23;20531;-56
2022/04/15 00:18:41;;;;;;;1.23;0.82;;;;;;;;;;6180912;23;20422;-55
2022/04/15 00:21:08;;;;;;;1.05;0.80;;;;;;;;;;6208190;23;20081;-55
2022/04/15 00:23:34;;;;;;;0.93;0.80;;;;;;;;;;6208102;23;20001;-56
2022/04/15 00:26:00;;;;;;;1.42;0.85;;;;;;;;;;6208794;23;20015;-55
2022/04/15 00:28:27;;;;;;;1.08;0.77;;;;;;;;;;6207424;23;20031;-55
2022/04/15 00:30:56;;;;;;;1.00;0.90;;;;;;;;;;6207526;23;20039;-55
2022/04/15 00:33:22;;;;;;;0.93;0.73;;;;;;;;;;6206776;23;20005;-55
2022/04/15 00:35:48;;;;;;;0.63;0.63;;;;;;;;;;6180615;23;20334;-55
2022/04/15 00:38:14;;;;;;;2.15;0.90;;;;;;;;;;6207491;23;20012;-55
2022/04/15 00:40:40;;;;;;;1.48;1.00;;;;;;;;;;6207684;23;20520;-55
2022/04/15 00:43:06;;;;;;;1.08;0.80;;;;;;;;;;6207538;23;20365;-55
2022/04/15 00:45:32;;;;;;;1.20;0.93;;;;;;;;;;6208109;23;20000;-55
2022/04/15 00:48:00;;;;;;;1.20;0.90;;;;;;;;;;6180927;23;20008;-55
2022/04/15 00:50:29;;;;;;;1.00;0.75;;;;;;;;;;6207646;23;20088;-55
2022/04/15 00:52:57;;;;;;;1.27;0.90;;;;;;;;;;6207477;23;20004;-55
2022/04/15 00:55:23;;;;;;;0.88;0.80;;;;;;;;;;6207217;23;20004;-55
2022/04/15 00:57:51;;;;;;;1.60;1.02;;;;;;;;;;6206858;23;20005;-55
2022/04/15 01:00:17;;;;;;;1.27;1.17;;;;;;;;;;6206924;23;20036;-55
2022/04/15 01:02:44;;;;;;;1.60;1.00;;;;;;;;;;6206721;23;20001;-55
2022/04/15 01:05:11;;;;;;;1.08;0.70;;;;;;;;;;6206933;23;20095;-55
2022/04/15 01:07:42;;;;;;;1.73;0.88;;;;;;;;;;6207327;23;20007;-55
2022/04/15 01:10:12;;;;;;;1.00;0.70;;;;;;;;;;6206191;23;20000;-56
2022/04/15 01:12:39;;;;;;;1.13;0.90;;;;;;;;;;6207095;23;20390;-56
2022/04/15 01:15:06;;;;;;;0.98;0.80;;;;;;;;;;6206293;23;20080;-56
2022/04/15 01:17:35;;;;;;;0.80;0.80;;;;;;;;;;6205862;23;20669;-55
2022/04/15 01:20:03;;;;;;;0.63;0.63;;;;;;;;;;6207339;23;19997;-55
2022/04/15 01:22:33;;;;;;;1.48;0.95;;;;;;;;;;6207821;23;20001;-55
2022/04/15 01:24:59;;;;;;;1.50;0.82;;;;;;;;;;6208003;23;20326;-55
2022/04/15 01:27:28;;;;;;;0.70;0.70;;;;;;;;;;6206978;23;20338;-55
2022/04/15 01:29:54;;;;;;;1.45;0.90;;;;;;;;;;6207323;23;20035;-55
2022/04/15 01:32:21;;;;;;;1.60;0.80;;;;;;;;;;6206902;23;20020;-55
2022/04/15 01:34:47;;;;;;;1.48;0.60;;;;;;;;;;6207015;23;20331;-55
2022/04/15 01:37:15;;;;;;;1.27;0.77;;;;;;;;;;6206658;23;20009;-55
2022/04/15 01:39:41;;;;;;;0.60;0.60;;;;;;;;;;6207187;23;20518;-55
2022/04/15 01:42:11;;;;;;;1.17;0.80;;;;;;;;;;6180266;23;20035;-55
2022/04/15 01:44:37;;;;;;;0.80;0.80;;;;;;;;;;6206939;23;20512;-55
2022/04/15 01:47:04;;;;;;;2.25;1.08;;;;;;;;;;6206883;23;20000;-55
2022/04/15 01:49:30;;;;;;;1.40;0.70;;;;;;;;;;6207325;23;20013;-55
2022/04/15 01:51:56;;;;;;;1.05;0.70;;;;;;;;;;6207312;23;20440;-55
2022/04/15 01:54:22;;;;;;;0.77;0.55;;;;;;;;;;6206831;23;20031;-55
2022/04/15 01:56:48;;;;;;;0.88;0.60;;;;;;;;;;6207285;23;20342;-55
2022/04/15 01:59:15;;;;;;;0.60;0.55;;;;;;;;;;6206858;23;20035;-55
2022/04/15 02:01:41;;;;;;;0.80;0.70;;;;;;;;;;6206949;23;20009;-55
2022/04/15 02:04:07;;;;;;;0.60;0.60;;;;;;;;;;6206941;23;20111;-55
2022/04/15 02:06:33;;;;;;;0.95;0.70;;;;;;;;;;6181137;23;20442;-55
2022/04/15 02:08:59;;;;;;;1.73;0.80;;;;;;;;;;6207838;23;20480;-55
2022/04/15 02:11:25;;;;;;;1.05;0.75;;;;;;;;;;6206761;23;20080;-55
2022/04/15 02:13:51;;;;;;;0.50;0.47;;;;;;;;;;6206979;23;20031;-55
2022/04/15 02:16:17;;;;;;;0.65;0.65;;;;;;;;;;6206684;23;20362;-55
2022/04/15 02:18:43;;;;;;;2.00;0.70;;;;;;;;;;6208395;23;20429;-56
2022/04/15 02:21:09;;;;;;;0.50;0.50;;;;;;;;;;6208554;23;20380;-56
2022/04/15 02:23:35;;;;;;;1.00;0.90;;;;;;;;;;6208225;23;20011;-56
2022/04/15 02:26:01;;;;;;;0.90;0.70;;;;;;;;;;6209789;23;20413;-55
2022/04/15 02:28:27;;;;;;;0.88;0.80;;;;;;;;;;6208902;23;20001;-55
2022/04/15 02:30:53;;;;;;;0.95;0.70;;;;;;;;;;6209014;23;21013;-55
2022/04/15 02:33:19;;;;;;;0.47;0.47;;;;;;;;;;6208744;23;20478;-55
2022/04/15 02:35:46;;;;;;;0.65;0.65;;;;;;;;;;6208329;23;20335;-55
2022/04/15 02:38:12;;;;;;;0.70;0.60;;;;;;;;;;6208478;23;20004;-56
2022/04/15 02:40:38;;;;;;;0.68;0.68;;;;;;;;;;6208863;23;20300;-55
2022/04/15 02:43:04;;;;;;;0.85;0.70;;;;;;;;;;6208989;23;20001;-55
2022/04/15 02:45:30;;;;;;;0.80;0.50;;;;;;;;;;6209033;23;20005;-55
2022/04/15 02:47:57;;;;;;;0.75;0.63;;;;;;;;;;6208850;23;20008;-55
2022/04/15 02:50:23;;;;;;;0.85;0.50;;;;;;;;;;6208644;23;20316;-55
2022/04/15 02:52:49;;;;;;;0.70;0.68;;;;;;;;;;6208692;23;20443;-55
2022/04/15 02:55:16;;;;;;;0.60;0.60;;;;;;;;;;6208391;23;20005;-55
2022/04/15 02:57:42;;;;;;;0.82;0.68;;;;;;;;;;6208695;23;20020;-55
2022/04/15 03:00:08;;;;;;;0.50;0.50;;;;;;;;;;6180924;23;20007;-55
2022/04/15 03:02:35;;;;;;;1.05;0.65;;;;;;;;;;6207939;23;20004;-56
2022/04/15 03:05:01;;;;;;;1.15;0.70;;;;;;;;;;6208757;23;20017;-55
2022/04/15 03:07:28;;;;;;;0.50;0.50;;;;;;;;;;6181174;23;20015;-55
2022/04/15 03:09:54;;;;;;;1.15;0.70;;;;;;;;;;6208635;23;20357;-55
2022/04/15 03:12:20;;;;;;;1.85;0.57;;;;;;;;;;6208524;23;20312;-55
2022/04/15 03:14:46;;;;;;;0.68;0.50;;;;;;;;;;6208264;23;20342;-57
2022/04/15 03:17:12;;;;;;;0.60;0.60;;;;;;;;;;6208162;23;20426;-57
2022/04/15 03:19:39;;;;;;;0.70;0.70;;;;;;;;;;6208497;23;20072;-58
2022/04/15 03:22:05;;;;;;;0.93;0.77;;;;;;;;;;6208360;23;20346;-58
2022/04/15 03:24:31;;;;;;;0.90;0.70;;;;;;;;;;6209120;23;20016;-58
2022/04/15 03:26:57;;;;;;;1.33;1.13;;;;;;;;;;6208580;23;20036;-58
2022/04/15 03:29:23;;;;;;;0.60;0.60;;;;;;;;;;6207373;23;20059;-58
2022/04/15 03:31:50;;;;;;;0.93;0.65;;;;;;;;;;6208097;23;20012;-58
2022/04/15 03:34:16;;;;;;;0.70;0.70;;;;;;;;;;6207934;23;20028;-58
2022/04/15 03:36:42;;;;;;;1.15;0.82;;;;;;;;;;6207931;23;20009;-58
2022/04/15 03:39:08;;;;;;;0.80;0.70;;;;;;;;;;6208277;23;20569;-58
2022/04/15 03:41:34;;;;;;;0.80;0.80;;;;;;;;;;6208340;23;20183;-58
2022/04/15 03:44:01;;;;;;;0.90;0.70;;;;;;;;;;6209107;23;20015;-58
2022/04/15 03:46:27;;;;;;;1.23;0.75;;;;;;;;;;6207913;23;20004;-58
2022/04/15 03:48:53;;;;;;;1.33;0.70;;;;;;;;;;6208508;23;20408;-58
2022/04/15 03:51:19;;;;;;;0.80;0.60;;;;;;;;;;6207871;23;20004;-58
2022/04/15 03:53:45;;;;;;;0.80;0.73;;;;;;;;;;6208287;23;20397;-57
2022/04/15 03:56:12;;;;;;;0.80;0.73;;;;;;;;;;6207738;23;20331;-58
2022/04/15 03:58:38;;;;;;;1.00;0.80;;;;;;;;;;6207799;23;20063;-58
2022/04/15 04:01:04;;;;;;;0.95;0.60;;;;;;;;;;6181128;23;20043;-58
2022/04/15 04:03:30;;;;;;;0.80;0.77;;;;;;;;;;6208619;23;19996;-57
2022/04/15 04:05:56;;;;;;;0.95;0.70;;;;;;;;;;6207882;23;20008;-58
2022/04/15 04:08:22;;;;;;;0.73;0.73;;;;;;;;;;6207675;23;20026;-58
2022/04/15 04:10:48;;;;;;;0.80;0.70;;;;;;;;;;6207815;23;20004;-58
2022/04/15 04:13:14;;;;;;;0.77;0.77;;;;;;;;;;6207749;23;20005;-58
2022/04/15 04:15:40;;;;;;;0.93;0.65;;;;;;;;;;6207674;23;20012;-58
2022/04/15 04:18:07;;;;;;;1.50;0.70;;;;;;;;;;6207967;23;20008;-58
2022/04/15 04:20:33;;;;;;;1.13;0.70;;;;;;;;;;6181252;23;20091;-58
2022/04/15 04:22:59;;;;;;;0.75;0.75;;;;;;;;;;6208677;23;20472;-58
2022/04/15 04:25:25;;;;;;;0.95;0.65;;;;;;;;;;6207320;23;20039;-58
2022/04/15 04:27:51;;;;;;;0.93;0.88;;;;;;;;;;6207667;23;20465;-58
2022/04/15 04:30:17;;;;;;;1.25;1.05;;;;;;;;;;6207188;23;20505;-58
2022/04/15 04:32:50;;;;;;;1.33;0.80;;;;;;;;;;6207678;23;20076;-58
2022/04/15 04:35:18;;;;;;;1.00;0.90;;;;;;;;;;6207477;23;20011;-58
2022/04/15 04:37:44;;;;;;;0.88;0.80;;;;;;;;;;6207475;23;20084;-57
2022/04/15 04:40:10;;;;;;;1.90;0.90;;;;;;;;;;6207328;23;20051;-58
2022/04/15 04:42:37;;;;;;;1.00;0.70;;;;;;;;;;6207601;23;20067;-58
2022/04/15 04:45:03;;;;;;;2.38;0.73;;;;;;;;;;6207327;23;20007;-59
2022/04/15 04:47:29;;;;;;;1.25;0.88;;;;;;;;;;6208123;23;20436;-58
2022/04/15 04:49:56;;;;;;;1.17;0.80;;;;;;;;;;6207294;23;20001;-57
2022/04/15 04:52:25;;;;;;;1.20;0.80;;;;;;;;;;6207299;23;20012;-58
2022/04/15 04:54:51;;;;;;;0.65;0.60;;;;;;;;;;6207376;23;20004;-58
2022/04/15 04:57:17;;;;;;;1.13;0.90;;;;;;;;;;6207430;23;20397;-58
2022/04/15 04:59:43;;;;;;;0.93;0.90;;;;;;;;;;6207200;23;20032;-58
2022/04/15 05:02:10;;;;;;;1.80;0.70;;;;;;;;;;6207205;23;20008;-58
2022/04/15 05:04:42;;;;;;;0.63;0.63;;;;;;;;;;6206891;23;20040;-58
2022/04/15 05:07:08;;;;;;;1.45;1.00;;;;;;;;;;6206767;23;20008;-58
2022/04/15 05:09:34;;;;;;;0.80;0.70;;;;;;;;;;6207065;23;20076;-58
2022/04/15 05:12:00;;;;;;;1.60;1.17;;;;;;;;;;6208335;23;20032;-57
2022/04/15 05:14:26;;;;;;;1.65;0.73;;;;;;;;;;6206917;23;20004;-57
2022/04/15 05:16:52;;;;;;;1.30;0.90;;;;;;;;;;6207174;23;20004;-58
2022/04/15 05:19:18;;;;;;;1.05;0.70;;;;;;;;;;6207049;23;20000;-58
2022/04/15 05:21:44;;;;;;;1.17;1.08;;;;;;;;;;6207545;23;20466;-58
2022/04/15 05:24:11;;;;;;;1.00;0.77;;;;;;;;;;6206857;23;20032;-58
2022/04/15 05:26:37;;;;;;;1.65;0.80;;;;;;;;;;6207368;23;20608;-58
2022/04/15 05:29:03;;;;;;;0.63;0.60;;;;;;;;;;6207712;23;20062;-57
2022/04/15 05:31:30;;;;;;;1.23;0.80;;;;;;;;;;6180874;23;20084;-58
2022/04/15 05:33:56;;;;;;;0.80;0.80;;;;;;;;;;6207284;23;20007;-58
2022/04/15 05:36:22;;;;;;;0.98;0.80;;;;;;;;;;6206919;23;20043;-58
2022/04/15 05:38:48;;;;;;;0.98;0.85;;;;;;;;;;6207032;23;20035;-58
2022/04/15 05:41:14;;;;;;;0.77;0.70;;;;;;;;;;6206152;23;20532;-58
2022/04/15 05:43:40;;;;;;;0.70;0.70;;;;;;;;;;6206398;23;20103;-58
2022/04/15 05:46:06;;;;;;;0.95;0.77;;;;;;;;;;6207201;23;20099;-58
2022/04/15 05:48:32;;;;;;;2.45;1.00;;;;;;;;;;6207638;23;20331;-58
2022/04/15 05:50:58;;;;;;;1.23;1.00;;;;;;;;;;6207200;23;20004;-58
2022/04/15 05:53:25;;;;;;;1.48;1.10;;;;;;;;;;6206415;23;20028;-58
2022/04/15 05:55:51;;;;;;;1.20;1.10;;;;;;;;;;6207060;23;20658;-58
2022/04/15 05:58:17;;;;;;;0.70;0.70;;;;;;;;;;6206569;23;20004;-58
2022/04/15 06:00:43;;;;;;;0.93;0.82;;;;;;;;;;6207081;23;20452;-58
2022/04/15 06:03:09;;;;;;;0.80;0.80;;;;;;;;;;6179783;23;20024;-58
2022/04/15 06:05:35;;;;;;;1.60;1.10;;;;;;;;;;6205111;23;20434;-58
2022/04/15 06:08:01;;;;;;;1.10;0.80;;;;;;;;;;6207226;23;20008;-58
2022/04/15 06:10:28;;;;;;;0.70;0.70;;;;;;;;;;6206263;23;20032;-58
2022/04/15 06:12:54;;;;;;;1.08;0.98;;;;;;;;;;6206412;23;20008;-58
2022/04/15 06:15:30;;;;;;;1.42;1.08;;;;;;;;;;6206118;23;20440;-58
2022/04/15 06:17:56;;;;;;;1.42;1.10;;;;;;;;;;6206441;23;20008;-58
2022/04/15 06:20:22;;;;;;;0.80;0.80;;;;;;;;;;6206096;23;20001;-58
2022/04/15 06:22:50;;;;;;;1.08;0.98;;;;;;;;;;6206729;23;20005;-58
2022/04/15 06:25:16;;;;;;;1.67;1.17;;;;;;;;;;6205447;23;20385;-58
2022/04/15 06:27:42;;;;;;;1.05;0.80;;;;;;;;;;6206775;23;20000;-58
2022/04/15 06:30:08;;;;;;;1.02;0.90;;;;;;;;;;6206332;23;20746;-58
2022/04/15 06:32:35;;;;;;;1.42;1.00;;;;;;;;;;6205592;23;20102;-58
2022/04/15 06:35:01;;;;;;;0.90;0.90;;;;;;;;;;6207170;23;20695;-58
2022/04/15 06:37:27;;;;;;;1.17;1.08;;;;;;;;;;6206336;23;20004;-58
2022/04/15 06:39:53;;;;;;;1.48;1.15;;;;;;;;;;6205921;23;20005;-58
2022/04/15 06:42:27;;;;;;;1.67;1.10;;;;;;;;;;6206623;23;20019;-58
2022/04/15 06:44:53;;;;;;;;;;;;;;;;;;6207410;23;20005;-58
2022/04/15 06:47:19;;;;;;;2.60;1.52;;;;;;;;;;6206428;23;19903;-57
2022/04/15 06:49:45;;;;;;;0.88;0.82;;;;;;;;;;6206530;23;20012;-58
2022/04/15 06:52:12;;;;;;;1.15;1.02;;;;;;;;;;6205998;23;20375;-58
2022/04/15 06:54:38;;;;;;;1.10;1.00;;;;;;;;;;6179096;23;20059;-58
2022/04/15 06:57:05;;;;;;;1.20;1.10;;;;;;;;;;6206066;23;20000;-58
2022/04/15 06:59:31;;;;;;;1.90;1.33;;;;;;;;;;6205439;23;20338;-58
2022/04/15 07:01:59;;;;;;;1.23;1.13;;;;;;;;;;6205738;23;19997;-57
2022/04/15 07:04:25;;;;;;;1.70;1.20;;;;;;;;;;6206771;23;20319;-58
2022/04/15 07:06:51;;;;;;;1.10;1.00;;;;;;;;;;6207382;23;20006;-58
2022/04/15 07:09:17;;;;;;;0.88;0.88;;;;;;;;;;6208992;23;20001;-58
2022/04/15 07:11:43;;;;;;;1.42;1.15;;;;;;;;;;6208521;23;20067;-58
2022/04/15 07:14:09;;;;;;;1.42;1.27;;;;;;;;;;6208541;23;20126;-58
2022/04/15 07:16:35;;;;;;;1.83;1.10;;;;;;;;;;6208778;23;20346;-58
2022/04/15 07:19:04;;;;;;;1.00;1.00;;;;;;;;;;6209400;23;20004;-58
2022/04/15 07:21:31;;;;;;;1.50;1.10;;;;;;;;;;6210144;23;20015;-58
2022/04/15 07:23:57;;;;;;;1.63;1.10;;;;;;;;;;6209570;23;20032;-58
2022/04/15 07:26:24;;;;;;;1.65;1.33;;;;;;;;;;6209198;23;20072;-58
2022/04/15 07:28:50;;;;;;;1.50;1.20;;;;;;;;;;6208820;23;20353;-61
2022/04/15 07:31:16;;;;;;;1.20;0.80;;;;;;;;;;6208904;23;20327;-58
2022/04/15 07:33:42;;;;;;;1.50;1.00;;;;;;;;;;6208857;23;20495;-58
2022/04/15 07:36:42;;;;;;;0.80;0.80;;;;;;;;;;6209471;23;20003;-58
2022/04/15 07:38:54;;;;;;;1.17;0.90;;;;;;;;;;6208870;23;20012;-58
2022/04/15 07:41:20;;;;;;;1.23;1.10;;;;;;;;;;6209219;23;20001;-58
2022/04/15 07:43:48;;;;;;;1.30;1.20;;;;;;;;;;6208837;23;20005;-58
2022/04/15 07:46:14;;;;;;;1.08;0.80;;;;;;;;;;6209055;23;20000;-58
2022/04/15 07:48:40;;;;;;;1.00;0.90;;;;;;;;;;6209323;23;20346;-58
2022/04/15 07:51:06;;;;;;;1.40;1.30;;;;;;;;;;6209110;23;20000;-58
2022/04/15 07:53:33;;;;;;;1.30;1.20;;;;;;;;;;6209863;23;20059;-58
2022/04/15 07:56:00;;;;;;;1.77;1.20;;;;;;;;;;6209789;23;20391;-58
2022/04/15 07:58:26;;;;;;;1.50;1.30;;;;;;;;;;6208794;23;20115;-58
2022/04/15 08:00:52;;;;;;;1.73;1.30;;;;;;;;;;6209219;23;20102;-58
2022/04/15 08:03:20;;;;;;;1.20;1.10;;;;;;;;;;6208430;23;20346;-57
2022/04/15 08:05:46;;;;;;;2.15;1.23;;;;;;;;;;6208526;23;20009;-58
2022/04/15 08:08:12;;;;;;;1.13;1.02;;;;;;;;;;6208941;23;20350;-58
2022/04/15 08:10:38;;;;;;;2.38;1.25;;;;;;;;;;6209125;23;20058;-58
2022/04/15 08:13:04;;;;;;;2.00;1.10;;;;;;;;;;6208524;23;20361;-58
2022/04/15 08:15:31;;;;;;;1.55;1.20;;;;;;;;;;6180843;23;20019;-58
2022/04/15 08:17:57;;;;;;;1.55;1.25;;;;;;;;;;6207840;23;20005;-58
2022/04/15 08:20:23;;;;;;;1.33;1.10;;;;;;;;;;6208742;23;20012;-58
2022/04/15 08:22:49;;;;;;;1.35;1.25;;;;;;;;;;6209173;23;20040;-58
2022/04/15 08:25:15;;;;;;;1.13;0.98;;;;;;;;;;6207128;23;20028;-57
2022/04/15 08:27:41;;;;;;;2.35;1.15;;;;;;;;;;6208374;23;20000;-58
2022/04/15 08:30:08;;;;;;;2.25;1.30;;;;;;;;;;6209049;23;20008;-58
2022/04/15 08:32:34;;;;;;;1.67;1.40;;;;;;;;;;6209751;23;20008;-58
2022/04/15 08:35:00;;;;;;;1.20;1.10;;;;;;;;;;6208758;23;20509;-58
2022/04/15 08:37:28;;;;;;;1.05;0.95;;;;;;;;;;6207811;23;20080;-58
2022/04/15 08:39:54;;;;;;;1.70;1.30;;;;;;;;;;6208870;23;20004;-58
2022/04/15 08:42:23;;;;;;;1.20;1.10;;;;;;;;;;6207934;23;20076;-58
2022/04/15 08:44:53;;;;;;;1.77;1.20;;;;;;;;;;6208304;23;20006;-58
2022/04/15 08:47:20;;;;;;;2.15;1.38;;;;;;;;;;6208475;23;20023;-58
2022/04/15 08:49:47;;;;;;;1.80;1.40;;;;;;;;;;6208457;23;20035;-58
2022/04/15 08:52:15;;;;;;;1.10;1.00;;;;;;;;;;6208536;23;20000;-58
2022/04/15 08:54:42;;;;;;;1.58;1.30;;;;;;;;;;6208386;23;20031;-58
2022/04/15 08:57:08;;;;;;;1.00;0.90;;;;;;;;;;6208151;23;20435;-58
2022/04/15 08:59:34;;;;;;;2.00;1.35;;;;;;;;;;6209112;23;20015;-58
2022/04/15 09:02:00;;;;;;;1.50;1.35;;;;;;;;;;6209136;23;20087;-58
2022/04/15 09:04:26;;;;;;;2.33;1.60;;;;;;;;;;6206354;23;20645;-58
2022/04/15 09:06:56;;;;;;;1.20;1.10;;;;;;;;;;6208790;23;20047;-57
2022/04/15 09:09:29;;;;;;;1.30;1.10;;;;;;;;;;6206998;23;20365;-58
2022/04/15 09:11:56;;;;;;;1.10;0.98;;;;;;;;;;6207843;23;20059;-58
2022/04/15 09:14:23;;;;;;;1.30;1.20;;;;;;;;;;6206971;23;20458;-58
2022/04/15 09:16:49;;;;;;;1.23;0.98;;;;;;;;;;6179027;23;20474;-57
2022/04/15 09:19:16;;;;;;;2.50;1.17;;;;;;;;;;6180236;23;20011;-58
2022/04/15 09:21:49;;;;;;;2.17;1.85;;;;;;;;;;6207373;23;20001;-58
2022/04/15 09:24:17;;;;;;;1.88;1.58;;;;;;;;;;6207771;23;20031;-58
2022/04/15 09:26:46;;;;;;;1.67;1.30;;;;;;;;;;6207907;23;20031;-58
2022/04/15 09:29:15;;;;;;;1.63;1.52;;;;;;;;;;6208133;23;20103;-58
2022/04/15 09:31:44;;;;;;;1.23;1.13;;;;;;;;;;6208313;23;20004;-58
2022/04/15 09:34:10;;;;;;;2.00;1.40;;;;;;;;;;6206827;23;20036;-55
2022/04/15 09:36:38;;;;;;;1.45;1.20;;;;;;;;;;6206035;23;20449;-55
2022/04/15 09:39:11;;;;;;;1.40;1.15;;;;;;;;;;6207395;23;20008;-56
2022/04/15 09:41:42;;;;;;;1.23;1.08;;;;;;;;;;6207639;23;20047;-55
2022/04/15 09:44:12;;;;;;;0.80;0.70;;;;;;;;;;6207554;23;20000;-55
2022/04/15 09:46:41;;;;;;;1.63;1.00;;;;;;;;;;6208297;23;20001;-55
2022/04/15 09:49:08;;;;;;;2.05;1.20;;;;;;;;;;6181078;23;20016;-55
2022/04/15 09:51:42;;;;;;;1.90;1.67;;;;;;;;;;6208305;23;20034;-55
2022/04/15 09:54:11;;;;;;;2.22;1.90;;;;;;;;;;6207210;23;20015;-55
2022/04/15 09:56:39;;;;;;;2.28;1.40;;;;;;;;;;6207911;23;20087;-55
2022/04/15 09:59:11;;;;;;;1.00;0.90;;;;;;;;;;6207841;23;20010;-55
2022/04/15 10:01:40;;;;;;;1.20;1.10;;;;;;;;;;6207850;23;20003;-55
2022/04/15 10:04:06;;;;;;;1.00;0.90;;;;;;;;;;6208046;23;20012;-55
2022/04/15 10:06:32;;;;;;;1.58;1.20;;;;;;;;;;6207653;23;19998;-56
2022/04/15 10:09:02;;;;;;;2.83;1.27;;;;;;;;;;6208836;23;20063;-55
2022/04/15 10:11:28;;;;;;;2.47;1.80;;;;;;;;;;6208355;23;20008;-55
2022/04/15 10:13:55;;;;;;;2.33;2.13;;;;;;;;;;6207220;23;20035;-55
2022/04/15 10:16:22;;;;;;;2.75;2.10;;;;;;;;;;6207664;23;20315;-55
2022/04/15 10:18:49;;;;;;;2.15;1.67;;;;;;;;;;6207173;23;20004;-55
2022/04/15 10:21:15;;;;;;;2.20;1.50;;;;;;;;;;6207524;23;20344;-55
2022/04/15 10:23:43;;;;;;;6.25;2.58;;;;;;;;;;6207758;23;20004;-55
2022/04/15 10:26:09;;;;;;;3.95;2.00;;;;;;;;;;6204576;23;20473;-55
2022/04/15 10:28:44;;;;;;;2.55;2.05;;;;;;;;;;6206841;23;20009;-58
2022/04/15 10:31:11;;;;;;;2.78;1.90;;;;;;;;;;6206818;23;20679;-58
2022/04/15 10:33:39;;;;;;;2.75;1.90;;;;;;;;;;6206853;23;20015;-58
2022/04/15 10:36:22;;;;;;;2.83;1.83;;;;;;;;;;6205674;23;20009;-56
2022/04/15 10:39:03;;;;;;;1.90;1.55;;;;;;;;;;6180008;23;20382;-55
2022/04/15 10:41:30;;;;;;;2.20;1.67;;;;;;;;;;6209302;23;20737;-55
2022/04/15 10:44:00;;;;;;;2.15;1.80;;;;;;;;;;6183510;23;20513;-55
2022/04/15 10:46:30;;;;;;;1.63;1.27;;;;;;;;;;6207768;23;20001;-55
2022/04/15 10:49:00;;;;;;;1.50;1.15;;;;;;;;;;6209325;23;20455;-55
2022/04/15 10:51:27;;;;;;;2.83;1.60;;;;;;;;;;6210229;23;20494;-55
2022/04/15 10:53:54;;;;;;;1.85;1.55;;;;;;;;;;6209222;23;20075;-55
2022/04/15 10:56:22;;;;;;;3.65;1.88;;;;;;;;;;6207821;23;20004;-55
2022/04/15 11:02:05;;;;;;;2.05;1.40;;;;;;;;;;6207052;23;20036;-55
2022/04/15 11:04:35;;;;;;;2.33;1.50;;;;;;;;;;6210131;23;20016;-55
2022/04/15 11:07:14;;;;;;;1.67;1.40;;;;;;;;;;6208739;23;20012;-55
2022/04/15 11:09:40;;;;;;;3.72;2.17;;;;;;;;;;6209421;23;20004;-55
2022/04/15 11:12:06;;;;;;;3.80;1.88;;;;;;;;;;6182798;23;20009;-56
2022/04/15 11:14:35;;;;;;;2.92;2.00;;;;;;;;;;6209147;23;20005;-55
2022/04/15 11:17:02;;;;;;;3.55;2.10;;;;;;;;;;6209234;23;20047;-55
2022/04/15 11:19:28;;;;;;;1.80;1.70;;;;;;;;;;6208427;23;20099;-55
2022/04/15 11:21:54;;;;;;;1.90;1.40;;;;;;;;;;6182446;23;20516;-55
2022/04/15 11:24:25;;;;;;;3.67;1.50;;;;;;;;;;6209068;23;20075;-55
2022/04/15 11:26:56;;;;;;;1.48;1.20;;;;;;;;;;6208847;23;20019;-55
2022/04/15 11:29:27;;;;;;;2.42;1.15;;;;;;;;;;6208758;23;20001;-56
2022/04/15 11:31:58;;;;;;;3.13;1.45;;;;;;;;;;6207929;23;20012;-55
2022/04/15 11:34:24;;;;;;;1.73;1.55;;;;;;;;;;6208572;23;20072;-55
2022/04/15 11:36:53;;;;;;;1.33;1.20;;;;;;;;;;6208693;23;20043;-55
2022/04/15 11:39:22;;;;;;;2.65;1.30;;;;;;;;;;6206761;23;20465;-56
2022/04/15 11:41:52;;;;;;;1.58;1.45;;;;;;;;;;6207850;23;20076;-56
2022/04/15 11:44:19;;;;;;;3.78;1.70;;;;;;;;;;6182413;23;20007;-56
2022/04/15 11:46:47;;;;;;;1.92;1.50;;;;;;;;;;6208844;23;20442;-56
2022/04/15 11:49:14;;;;;;;2.00;1.23;;;;;;;;;;6206872;23;20039;-56
2022/04/15 11:51:43;;;;;;;3.33;1.70;;;;;;;;;;6207667;23;20067;-57
2022/04/15 11:54:09;;;;;;;2.45;1.65;;;;;;;;;;6207892;23;20015;-57
2022/04/15 11:56:35;;;;;;;2.35;1.75;;;;;;;;;;6206945;23;20013;-57
2022/04/15 11:59:01;;;;;;;2.53;2.00;;;;;;;;;;6209385;23;20445;-56
2022/04/15 12:01:29;;;;;;;1.95;1.67;;;;;;;;;;6208976;23;20015;-56
2022/04/15 12:03:55;;;;;;;2.35;1.65;;;;;;;;;;6180659;23;20470;-56
2022/04/15 12:06:22;;;;;;;2.28;1.80;;;;;;;;;;6203867;23;20028;-56
2022/04/15 12:08:49;;;;;;;2.92;1.77;;;;;;;;;;6207888;23;20442;-56
2022/04/15 12:11:15;;;;;;;2.75;1.98;;;;;;;;;;6208380;23;20032;-56
2022/04/15 12:13:41;;;;;;;2.80;1.55;;;;;;;;;;6207974;23;20019;-56
2022/04/15 12:16:09;;;;;;;2.83;1.58;;;;;;;;;;6208449;23;20466;-56
2022/04/15 12:18:35;;;;;;;4.53;1.73;;;;;;;;;;6207449;23;20000;-57
2022/04/15 12:21:01;;;;;;;3.10;1.73;;;;;;;;;;6208519;23;20408;-56
2022/04/15 12:23:28;;;;;;;1.63;1.52;;;;;;;;;;6208633;23;20004;-56
2022/04/15 12:26:13;;;;;;;2.88;1.73;;;;;;;;;;6208137;23;20466;-56
2022/04/15 12:31:31;;;;;;;2.35;1.90;;;;;;;;;;6207778;23;20023;-56
2022/04/15 12:33:58;;;;;;;2.85;1.48;;;;;;;;;;6207242;23;20011;-56
2022/04/15 12:36:25;;;;;;;1.35;1.13;;;;;;;;;;6207336;23;20508;-56
2022/04/15 12:39:01;;;;;;;2.03;1.45;;;;;;;;;;6206297;23;20036;-55
2022/04/15 12:41:47;;;;;;;1.65;1.35;;;;;;;;;;6206339;23;20004;-56
2022/04/15 12:44:23;;;;;;;1.40;1.10;;;;;;;;;;6206949;23;19997;-56
2022/04/15 12:46:55;;;;;;;1.48;1.30;;;;;;;;;;6207060;23;19997;-56
2022/04/15 12:49:25;;;;;;;1.70;1.30;;;;;;;;;;6206883;23;20011;-55
2022/04/15 12:51:53;;;;;;;1.20;1.10;;;;;;;;;;6207567;23;20087;-56
2022/04/15 12:54:19;;;;;;;1.80;1.40;;;;;;;;;;6206450;23;20009;-56
2022/04/15 12:56:55;;;;;;;2.80;1.75;;;;;;;;;;6206850;23;20024;-56
2022/04/15 12:59:21;;;;;;;3.22;1.48;;;;;;;;;;6206650;23;20462;-56
2022/04/15 13:01:47;;;;;;;3.03;1.90;;;;;;;;;;6207010;23;20331;-56
2022/04/15 13:04:16;;;;;;;1.83;1.65;;;;;;;;;;6206620;23;20091;-56
2022/04/15 13:06:42;;;;;;;3.80;1.90;;;;;;;;;;6206190;23;20084;-56
2022/04/15 13:09:09;;;;;;;2.97;2.00;;;;;;;;;;6206525;23;20466;-56
2022/04/15 13:11:36;;;;;;;2.05;1.52;;;;;;;;;;6207238;23;20023;-57
2022/04/15 13:14:02;;;;;;;2.05;1.52;;;;;;;;;;6207534;23;20445;-56
2022/04/15 13:16:29;;;;;;;2.35;1.35;;;;;;;;;;6207300;23;20180;-56
2022/04/15 13:18:56;;;;;;;2.88;1.60;;;;;;;;;;6207234;23;20108;-56
2022/04/15 13:21:24;;;;;;;2.47;1.40;;;;;;;;;;6206659;23;20003;-56
2022/04/15 13:23:51;;;;;;;2.80;1.20;;;;;;;;;;6207005;23;20005;-56
2022/04/15 13:26:18;;;;;;;1.75;1.40;;;;;;;;;;6206392;23;20505;-56
2022/04/15 13:28:44;;;;;;;2.80;2.05;;;;;;;;;;6207012;23;20004;-56
2022/04/15 13:31:11;;;;;;;3.05;1.67;;;;;;;;;;6206700;23;20004;-56
2022/04/15 13:33:40;;;;;;;1.52;1.10;;;;;;;;;;6207069;23;20042;-56
2022/04/15 13:36:06;;;;;;;2.17;1.58;;;;;;;;;;6206802;23;20643;-57
2022/04/15 13:38:33;;;;;;;1.55;1.45;;;;;;;;;;6206977;23;20017;-56
2022/04/15 13:40:59;;;;;;;2.42;1.67;;;;;;;;;;6206752;23;20078;-56
2022/04/15 13:43:25;;;;;;;1.73;1.23;;;;;;;;;;6206277;23;20001;-56
2022/04/15 13:45:51;;;;;;;2.63;1.50;;;;;;;;;;6206758;23;20000;-55
2022/04/15 13:48:17;;;;;;;1.65;1.35;;;;;;;;;;6207416;23;20327;-56
2022/04/15 13:50:44;;;;;;;2.60;1.35;;;;;;;;;;6207731;23;20004;-55
2022/04/15 13:58:39;;;;;;;2.30;1.77;;;;;;;;;;6207983;23;20016;-56
2022/04/15 14:01:05;;;;;;;1.95;1.10;;;;;;;;;;6207422;23;20020;-55
2022/04/15 14:03:33;;;;;;;2.33;1.50;;;;;;;;;;6207665;23;20027;-56
2022/04/15 14:05:59;;;;;;;1.45;1.35;;;;;;;;;;6207461;23;20480;-56
2022/04/15 14:08:26;;;;;;;2.95;1.65;;;;;;;;;;6207070;23;20354;-56
2022/04/15 14:10:55;;;;;;;3.35;2.00;;;;;;;;;;6207590;23;20147;-56
2022/04/15 14:13:21;;;;;;;2.90;1.73;;;;;;;;;;6207143;23;20012;-56
2022/04/15 14:15:47;;;;;;;1.98;1.40;;;;;;;;;;6207292;23;20346;-57
2022/04/15 14:18:13;;;;;;;3.47;1.90;;;;;;;;;;6207011;23;20450;-56
2022/04/15 14:20:39;;;;;;;1.88;1.30;;;;;;;;;;6206752;23;20488;-57
2022/04/15 14:23:06;;;;;;;1.67;1.40;;;;;;;;;;6206672;23;19996;-56
2022/04/15 14:25:32;;;;;;;2.15;1.40;;;;;;;;;;6207204;23;20472;-56
2022/04/15 14:27:58;;;;;;;1.92;1.33;;;;;;;;;;6180820;23;20015;-56
2022/04/15 14:30:24;;;;;;;1.85;1.42;;;;;;;;;;6206727;23;20107;-56
2022/04/15 14:32:54;;;;;;;2.45;1.20;;;;;;;;;;6208056;23;20398;-56
2022/04/15 14:35:20;;;;;;;2.05;1.38;;;;;;;;;;6206980;23;20020;-56
2022/04/15 14:37:46;;;;;;;2.33;1.25;;;;;;;;;;6206803;23;20455;-56
2022/04/15 14:40:12;;;;;;;1.15;1.05;;;;;;;;;;6206541;23;20000;-56
2022/04/15 14:42:38;;;;;;;1.30;1.20;;;;;;;;;;6205871;23;20022;-56
2022/04/15 14:45:04;;;;;;;2.88;1.15;;;;;;;;;;6207691;23;20346;-56
2022/04/15 14:47:30;;;;;;;1.77;1.40;;;;;;;;;;6207997;23;20009;-55
2022/04/15 14:49:56;;;;;;;1.85;1.00;;;;;;;;;;6207560;23;20084;-56
2022/04/15 14:52:22;;;;;;;1.38;1.27;;;;;;;;;;6206933;23;20485;-56
2022/04/15 14:54:50;;;;;;;2.60;1.50;;;;;;;;;;6207103;23;20000;-56